createdAt,value
2022-12-29T00:01:19.502Z,3.17
2022-12-29T00:03:50.427Z,5.07
2022-12-29T00:06:17.789Z,3.78
2022-12-29T00:08:45.190Z,4.20
2022-12-29T00:11:13.522Z,5.32
2022-12-29T00:14:00.307Z,4.30
2022-12-29T00:16:28.508Z,4.20
2022-12-29T00:18:55.880Z,3.70
2022-12-29T00:21:43.525Z,2.90
2022-12-29T00:24:28.503Z,4.82
2022-12-29T00:27:23.611Z,4.10
2022-12-29T00:30:10.075Z,4.45
2022-12-29T00:32:56.640Z,8.65
2022-12-29T00:35:28.896Z,3.05
2022-12-29T00:38:17.040Z,4.40
2022-12-29T00:41:03.667Z,4.13
2022-12-29T00:43:49.677Z,4.20
2022-12-29T00:46:20.221Z,4.13
2022-12-29T00:49:06.426Z,2.88
2022-12-29T00:51:33.854Z,3.53
2022-12-29T00:54:01.440Z,5.32
2022-12-29T00:56:28.832Z,4.13
2022-12-29T00:58:56.221Z,5.70
2022-12-29T01:01:23.705Z,8.02
2022-12-29T01:03:51.088Z,7.28
2022-12-29T01:06:20.004Z,6.38
2022-12-29T01:08:47.393Z,4.53
2022-12-29T01:11:14.969Z,4.38
2022-12-29T01:13:43.548Z,3.15
2022-12-29T01:16:10.929Z,3.42
2022-12-29T01:18:38.330Z,4.68
2022-12-29T01:21:07.148Z,3.28
2022-12-29T01:23:37.030Z,4.28
2022-12-29T01:26:11.894Z,4.35
2022-12-29T01:28:42.576Z,4.72
2022-12-29T01:31:11.077Z,3.85
2022-12-29T01:33:38.621Z,3.60
2022-12-29T01:36:11.265Z,3.83
2022-12-29T01:38:39.244Z,3.83
2022-12-29T01:41:07.945Z,5.18
2022-12-29T01:43:49.062Z,3.70
2022-12-29T01:46:31.375Z,3.38
2022-12-29T01:49:10.305Z,2.43
2022-12-29T01:51:40.406Z,2.10
2022-12-29T01:54:13.071Z,4.65
2022-12-29T01:56:40.467Z,3.17
2022-12-29T01:59:13.760Z,7.07
2022-12-29T02:01:42.252Z,4.15
2022-12-29T02:04:12.018Z,5.20
2022-12-29T02:06:59.244Z,6.70
2022-12-29T02:09:26.844Z,6.75
2022-12-29T02:11:54.339Z,5.63
2022-12-29T02:14:21.696Z,3.70
2022-12-29T02:17:04.208Z,3.60
2022-12-29T02:20:04.745Z,5.53
2022-12-29T02:22:36.371Z,3.20
2022-12-29T02:25:15.831Z,4.88
2022-12-29T02:27:56.798Z,4.97
2022-12-29T02:30:36.033Z,4.22
2022-12-29T02:33:43.807Z,6.15
2022-12-29T02:36:35.606Z,4.28
2022-12-29T02:39:27.425Z,3.53
2022-12-29T02:42:30.502Z,3.35
2022-12-29T02:45:09.056Z,3.65
2022-12-29T02:47:39.209Z,6.15
2022-12-29T02:50:15.813Z,5.82
2022-12-29T02:52:51.361Z,4.47
2022-12-29T02:55:18.656Z,6.20
2022-12-29T02:57:45.968Z,3.97
2022-12-29T03:00:16.614Z,3.78
2022-12-29T03:03:44.219Z,4.60
2022-12-29T03:06:27.183Z,5.07
2022-12-29T03:09:29.545Z,10.02
2022-12-29T03:12:19.809Z,6.85
2022-12-29T03:15:42.482Z,9.75
2022-12-29T03:18:16.519Z,5.25
2022-12-29T03:20:55.258Z,9.13
2022-12-29T03:23:23.773Z,6.30
2022-12-29T03:25:54.038Z,7.63
2022-12-29T03:28:30.394Z,8.30
2022-12-29T03:31:00.004Z,11.10
2022-12-29T03:33:29.052Z,8.38
2022-12-29T03:36:00.374Z,7.57
2022-12-29T03:38:55.321Z,7.40
2022-12-29T03:41:31.918Z,6.18
2022-12-29T03:43:59.371Z,8.48
2022-12-29T03:46:26.893Z,7.50
2022-12-29T03:48:54.318Z,6.93
2022-12-29T03:51:21.742Z,6.70
2022-12-29T03:53:49.083Z,5.40
2022-12-29T03:56:16.349Z,8.77
2022-12-29T03:58:43.771Z,11.07
2022-12-29T04:01:11.063Z,12.07
2022-12-29T04:03:38.428Z,10.88
2022-12-29T04:06:06.108Z,7.93
2022-12-29T04:08:33.532Z,14.57
2022-12-29T04:11:00.890Z,17.33
2022-12-29T04:13:28.346Z,12.07
2022-12-29T04:15:55.686Z,13.25
2022-12-29T04:18:23.065Z,13.73
2022-12-29T04:21:03.643Z,13.68
2022-12-29T04:23:33.415Z,15.38
2022-12-29T04:26:01.095Z,14.55
2022-12-29T04:28:28.482Z,14.27
2022-12-29T04:30:55.948Z,15.40
2022-12-29T04:33:24.071Z,12.95
2022-12-29T04:35:51.447Z,16.02
2022-12-29T04:38:18.730Z,17.70
2022-12-29T04:40:46.394Z,16.45
2022-12-29T04:43:14.404Z,13.18
2022-12-29T04:45:45.991Z,13.07
2022-12-29T04:48:13.731Z,17.75
2022-12-29T04:50:42.062Z,14.23
2022-12-29T04:53:09.501Z,13.85
2022-12-29T04:55:36.827Z,11.50
2022-12-29T04:58:04.160Z,16.27
2022-12-29T05:00:31.484Z,13.35
2022-12-29T05:02:59.063Z,14.10
2022-12-29T05:05:26.600Z,15.68
2022-12-29T05:07:53.959Z,15.60
2022-12-29T05:10:21.517Z,17.15
2022-12-29T05:12:48.908Z,14.50
2022-12-29T05:15:16.251Z,11.98
2022-12-29T05:17:43.638Z,18.77
2022-12-29T05:20:11.594Z,16.35
2022-12-29T05:22:39.163Z,16.80
2022-12-29T05:25:06.878Z,18.20
2022-12-29T05:27:36.467Z,17.58
2022-12-29T05:30:04.099Z,20.98
2022-12-29T05:32:31.755Z,15.32
2022-12-29T05:34:59.047Z,17.55
2022-12-29T05:37:26.362Z,16.52
2022-12-29T05:39:53.690Z,21.00
2022-12-29T05:42:21.044Z,18.08
2022-12-29T05:44:51.049Z,17.30
2022-12-29T05:47:18.351Z,14.80
2022-12-29T05:49:45.632Z,19.80
2022-12-29T05:52:12.933Z,18.00
2022-12-29T05:54:40.225Z,17.73
2022-12-29T05:57:07.656Z,18.88
2022-12-29T05:59:34.961Z,16.63
2022-12-29T06:02:02.559Z,16.48
2022-12-29T06:04:30.077Z,13.35
2022-12-29T06:06:57.406Z,16.63
2022-12-29T06:09:24.770Z,13.02
2022-12-29T06:11:52.196Z,14.30
2022-12-29T06:14:19.936Z,14.13
2022-12-29T06:16:47.255Z,13.63
2022-12-29T06:19:14.645Z,16.58
2022-12-29T06:21:42.005Z,13.07
2022-12-29T06:24:09.391Z,11.25
2022-12-29T06:26:37.717Z,18.25
2022-12-29T06:29:05.094Z,18.05
2022-12-29T06:31:32.416Z,15.65
2022-12-29T06:34:04.974Z,15.02
2022-12-29T06:36:36.655Z,11.80
2022-12-29T06:39:04.100Z,12.10
2022-12-29T06:41:32.519Z,20.58
2022-12-29T06:44:00.015Z,18.58
2022-12-29T06:46:27.421Z,22.17
2022-12-29T06:48:54.782Z,18.70
2022-12-29T06:51:22.119Z,20.90
2022-12-29T06:53:49.423Z,16.70
2022-12-29T06:56:16.769Z,15.57
2022-12-29T06:58:44.075Z,19.00
2022-12-29T07:01:11.559Z,20.88
2022-12-29T07:03:39.019Z,21.10
2022-12-29T07:06:06.933Z,21.90
2022-12-29T07:08:34.330Z,16.27
2022-12-29T07:11:01.630Z,16.50
2022-12-29T07:13:28.975Z,17.63
2022-12-29T07:15:56.282Z,22.55
2022-12-29T07:18:23.694Z,16.20
2022-12-29T07:20:51.015Z,20.83
2022-12-29T07:23:18.339Z,15.75
2022-12-29T07:25:45.715Z,19.33
2022-12-29T07:28:14.453Z,19.50
2022-12-29T07:30:41.817Z,20.67
2022-12-29T07:33:09.089Z,19.02
2022-12-29T07:35:36.715Z,24.25
2022-12-29T07:38:04.074Z,14.80
2022-12-29T07:40:31.412Z,24.33
2022-12-29T07:42:58.747Z,17.48
2022-12-29T07:45:26.121Z,20.58
2022-12-29T07:47:53.400Z,20.58
2022-12-29T07:50:20.783Z,16.88
2022-12-29T07:52:48.961Z,24.50
2022-12-29T07:55:17.635Z,21.20
2022-12-29T07:57:45.025Z,20.52
2022-12-29T08:00:13.491Z,19.42
2022-12-29T08:02:40.824Z,20.65
2022-12-29T08:05:08.475Z,20.08
2022-12-29T08:07:35.911Z,23.70
2022-12-29T08:10:03.556Z,18.70
2022-12-29T08:12:30.903Z,18.17
2022-12-29T08:14:58.357Z,20.65
2022-12-29T08:17:25.760Z,18.52
2022-12-29T08:19:53.335Z,20.83
2022-12-29T08:22:21.132Z,19.92
2022-12-29T08:24:49.341Z,25.00
2022-12-29T08:27:20.794Z,22.70
2022-12-29T08:29:48.898Z,14.47
2022-12-29T08:32:16.438Z,20.10
2022-12-29T08:34:43.828Z,16.90
2022-12-29T08:37:11.166Z,19.48
2022-12-29T08:39:38.507Z,15.43
2022-12-29T08:42:05.848Z,25.58
2022-12-29T08:44:33.676Z,15.80
2022-12-29T08:47:01.214Z,19.98
2022-12-29T08:49:28.625Z,18.63
2022-12-29T08:51:55.969Z,16.27
2022-12-29T08:54:23.409Z,19.80
2022-12-29T08:56:51.091Z,17.67
2022-12-29T08:59:18.435Z,15.88
2022-12-29T09:01:47.415Z,20.95
2022-12-29T09:04:28.460Z,23.13
2022-12-29T09:07:05.857Z,18.98
2022-12-29T09:09:33.822Z,23.48
2022-12-29T09:12:01.445Z,17.73
2022-12-29T09:14:44.381Z,19.05
2022-12-29T09:17:41.353Z,25.67
2022-12-29T09:20:11.330Z,20.10
2022-12-29T09:22:38.809Z,15.90
2022-12-29T09:25:06.642Z,18.50
2022-12-29T09:27:34.275Z,22.23
2022-12-29T09:30:01.726Z,16.38
2022-12-29T09:32:33.683Z,16.55
2022-12-29T09:35:01.700Z,12.10
2022-12-29T09:37:36.502Z,13.40
2022-12-29T09:40:04.788Z,9.40
2022-12-29T09:43:02.845Z,12.50
2022-12-29T09:45:35.997Z,15.32
2022-12-29T09:48:09.714Z,11.77
2022-12-29T09:50:39.154Z,11.02
2022-12-29T09:53:15.627Z,15.45
2022-12-29T09:55:46.340Z,17.75
2022-12-29T09:58:42.775Z,21.70
2022-12-29T10:01:43.454Z,20.67
2022-12-29T10:04:10.819Z,19.60
2022-12-29T10:09:53.127Z,23.23
2022-12-29T10:12:26.519Z,23.95
2022-12-29T10:14:59.743Z,24.05
2022-12-29T10:17:32.950Z,29.67
2022-12-29T10:20:08.306Z,25.05
2022-12-29T10:22:50.633Z,33.08
2022-12-29T10:25:32.951Z,27.23
2022-12-29T10:28:04.498Z,17.83
2022-12-29T10:30:34.876Z,25.27
2022-12-29T10:33:16.180Z,29.05
2022-12-29T10:35:45.497Z,25.25
2022-12-29T10:38:53.399Z,25.92
2022-12-29T10:41:35.669Z,28.02
2022-12-29T10:44:03.447Z,35.38
2022-12-29T10:46:35.267Z,26.77
2022-12-29T10:49:06.495Z,30.73
2022-12-29T10:51:42.549Z,27.02
2022-12-29T10:54:19.447Z,32.25
2022-12-29T10:56:56.562Z,37.05
2022-12-29T10:59:27.003Z,28.77
2022-12-29T11:02:12.892Z,36.25
2022-12-29T11:05:18.244Z,32.47
2022-12-29T11:07:47.518Z,33.72
2022-12-29T11:10:25.786Z,33.97
2022-12-29T11:13:02.526Z,26.30
2022-12-29T11:15:44.521Z,27.70
2022-12-29T11:18:35.258Z,27.08
2022-12-29T11:21:06.036Z,38.72
2022-12-29T11:23:36.377Z,27.20
2022-12-29T11:26:36.046Z,29.25
2022-12-29T11:29:09.684Z,31.85
2022-12-29T11:31:46.899Z,32.40
2022-12-29T11:34:34.758Z,32.15
2022-12-29T11:37:07.940Z,28.83
2022-12-29T11:39:40.623Z,30.20
2022-12-29T11:42:14.066Z,42.95
2022-12-29T11:44:47.124Z,31.13
2022-12-29T11:47:34.641Z,30.33
2022-12-29T11:50:09.701Z,31.23
2022-12-29T11:52:44.279Z,34.10
2022-12-29T11:55:23.260Z,27.90
2022-12-29T11:57:57.913Z,35.08
2022-12-29T12:00:27.061Z,36.58
2022-12-29T12:03:18.262Z,26.55
2022-12-29T12:06:06.741Z,27.95
2022-12-29T12:09:15.376Z,31.05
2022-12-29T12:11:46.552Z,28.73
2022-12-29T12:14:17.735Z,27.13
2022-12-29T12:16:47.492Z,22.60
2022-12-29T12:19:42.110Z,32.45
2022-12-29T12:22:28.556Z,29.25
2022-12-29T12:25:40.741Z,28.13
2022-12-29T12:28:19.542Z,27.55
2022-12-29T12:30:51.060Z,29.60
2022-12-29T12:33:31.315Z,30.50
2022-12-29T12:36:19.257Z,29.13
2022-12-29T12:38:46.881Z,23.30
2022-12-29T12:41:37.425Z,23.95
2022-12-29T12:44:45.609Z,26.55
2022-12-29T12:47:16.025Z,30.88
2022-12-29T12:49:58.847Z,24.58
2022-12-29T12:52:49.740Z,26.92
2022-12-29T12:55:50.009Z,30.45
2022-12-29T12:58:54.030Z,26.75
2022-12-29T13:01:36.325Z,23.60
2022-12-29T13:04:18.967Z,27.17
2022-12-29T13:06:55.247Z,27.45
2022-12-29T13:09:46.661Z,26.23
2022-12-29T13:12:18.407Z,17.73
2022-12-29T13:15:04.515Z,14.90
2022-12-29T13:17:56.693Z,12.18
2022-12-29T13:20:47.283Z,7.63
2022-12-29T13:23:20.664Z,10.55
2022-12-29T13:25:50.958Z,9.35
2022-12-29T13:28:28.114Z,10.32
2022-12-29T13:31:05.422Z,10.88
2022-12-29T13:33:50.932Z,13.13
2022-12-29T13:36:40.680Z,16.00
2022-12-29T13:39:24.348Z,14.10
2022-12-29T13:41:54.363Z,13.93
2022-12-29T13:44:56.522Z,10.18
2022-12-29T13:47:28.529Z,19.55
2022-12-29T13:49:58.714Z,15.57
2022-12-29T13:52:37.544Z,13.85
2022-12-29T13:55:20.795Z,12.57
2022-12-29T13:57:53.469Z,15.60
2022-12-29T14:00:22.871Z,19.15
2022-12-29T14:03:19.058Z,13.77
2022-12-29T14:05:47.822Z,16.45
2022-12-29T14:08:19.847Z,16.23
2022-12-29T14:10:51.937Z,16.00
2022-12-29T14:13:22.381Z,16.90
2022-12-29T14:16:01.130Z,17.80
2022-12-29T14:18:31.648Z,18.58
2022-12-29T14:21:17.931Z,18.23
2022-12-29T14:23:49.013Z,16.60
2022-12-29T14:26:36.549Z,23.42
2022-12-29T14:29:23.353Z,15.85
2022-12-29T14:31:51.510Z,16.08
2022-12-29T14:34:24.100Z,16.58
2022-12-29T14:37:04.445Z,14.00
2022-12-29T14:40:00.453Z,18.20
2022-12-29T14:42:28.717Z,17.08
2022-12-29T14:45:15.098Z,13.18
2022-12-29T14:47:45.157Z,13.27
2022-12-29T14:50:14.965Z,15.15
2022-12-29T14:53:02.051Z,12.60
2022-12-29T14:55:57.202Z,14.75
2022-12-29T14:58:33.889Z,12.45
2022-12-29T15:01:01.604Z,15.30
2022-12-29T15:03:51.426Z,15.52
2022-12-29T15:06:23.782Z,15.38
2022-12-29T15:08:56.252Z,13.90
2022-12-29T15:11:26.436Z,13.80
2022-12-29T15:13:53.993Z,12.63
2022-12-29T15:16:41.899Z,14.13
2022-12-29T15:19:24.123Z,14.07
2022-12-29T15:21:52.802Z,9.77
2022-12-29T15:24:20.631Z,15.10
2022-12-29T15:26:58.136Z,13.02
2022-12-29T15:29:45.177Z,14.40
2022-12-29T15:32:26.286Z,14.18
2022-12-29T15:35:17.788Z,14.75
2022-12-29T15:37:45.048Z,10.23
2022-12-29T15:40:30.856Z,9.82
2022-12-29T15:43:20.248Z,9.27
2022-12-29T15:45:50.689Z,8.35
2022-12-29T15:48:24.917Z,8.57
2022-12-29T15:50:52.994Z,10.88
2022-12-29T15:53:30.763Z,8.13
2022-12-29T15:56:09.960Z,11.35
2022-12-29T15:58:47.930Z,12.32
2022-12-29T16:01:28.190Z,12.52
2022-12-29T16:03:55.785Z,12.13
2022-12-29T16:06:33.867Z,14.38
2022-12-29T16:09:30.693Z,10.02
2022-12-29T16:12:02.577Z,11.05
2022-12-29T16:14:38.730Z,15.57
2022-12-29T16:17:10.146Z,9.57
2022-12-29T16:19:41.706Z,13.65
2022-12-29T16:22:29.992Z,8.30
2022-12-29T16:25:19.496Z,17.80
2022-12-29T16:27:46.885Z,13.68
2022-12-29T16:30:32.822Z,10.00
2022-12-29T16:33:03.457Z,12.93
2022-12-29T16:35:44.529Z,12.50
2022-12-29T16:38:16.647Z,18.23
2022-12-29T16:40:57.004Z,16.65
2022-12-29T16:43:26.325Z,13.00
2022-12-29T16:45:55.147Z,12.13
2022-12-29T16:48:26.680Z,12.23
2022-12-29T16:51:06.557Z,14.52
2022-12-29T16:53:37.455Z,19.30
2022-12-29T16:56:24.438Z,18.15
2022-12-29T16:58:55.300Z,17.92
2022-12-29T17:01:23.353Z,16.13
2022-12-29T17:03:59.665Z,17.80
2022-12-29T17:06:27.203Z,18.67
2022-12-29T17:08:54.675Z,13.00
2022-12-29T17:11:51.253Z,14.02
2022-12-29T17:15:00.347Z,21.15
2022-12-29T17:17:47.397Z,14.77
2022-12-29T17:20:26.047Z,21.00
2022-12-29T17:22:54.284Z,15.20
2022-12-29T17:25:30.170Z,18.25
2022-12-29T17:28:00.740Z,11.90
2022-12-29T17:30:33.573Z,19.38
2022-12-29T17:33:13.132Z,16.98
2022-12-29T17:35:40.839Z,18.60
2022-12-29T17:38:17.100Z,16.83
2022-12-29T17:40:44.532Z,20.83
2022-12-29T17:43:14.829Z,14.13
2022-12-29T17:45:43.211Z,16.08
2022-12-29T17:48:15.873Z,19.60
2022-12-29T17:50:43.837Z,18.80
2022-12-29T17:53:24.547Z,19.42
2022-12-29T17:55:52.096Z,20.98
2022-12-29T17:58:22.133Z,14.05
2022-12-29T18:00:52.354Z,14.68
2022-12-29T18:03:26.833Z,21.27
2022-12-29T18:05:54.383Z,16.92
2022-12-29T18:08:22.014Z,25.10
2022-12-29T18:10:51.137Z,16.65
2022-12-29T18:13:27.929Z,25.42
2022-12-29T18:15:58.453Z,19.65
2022-12-29T18:18:27.650Z,20.63
2022-12-29T18:20:56.816Z,27.33
2022-12-29T18:23:29.328Z,19.88
2022-12-29T18:26:00.067Z,22.45
2022-12-29T18:28:27.850Z,27.17
2022-12-29T18:30:59.097Z,20.50
2022-12-29T18:33:27.112Z,20.63
2022-12-29T18:36:03.328Z,29.40
2022-12-29T18:38:31.403Z,26.77
2022-12-29T18:40:59.982Z,22.45
2022-12-29T18:43:27.672Z,24.33
2022-12-29T18:45:55.171Z,29.25
2022-12-29T18:48:22.975Z,32.80
2022-12-29T18:50:52.033Z,26.50
2022-12-29T18:53:26.277Z,28.80
2022-12-29T18:55:54.294Z,31.95
2022-12-29T19:00:50.988Z,27.10
2022-12-29T19:03:19.302Z,31.95
2022-12-29T19:05:48.853Z,27.75
2022-12-29T19:08:20.834Z,23.70
2022-12-29T19:10:48.256Z,29.63
2022-12-29T19:13:20.212Z,23.85
2022-12-29T19:15:48.170Z,26.90
2022-12-29T19:21:09.233Z,28.90
2022-12-29T19:23:37.625Z,26.52
2022-12-29T19:26:06.080Z,33.17
2022-12-29T19:28:33.433Z,24.92
2022-12-29T19:31:03.673Z,28.13
2022-12-29T19:33:33.531Z,28.70
2022-12-29T19:36:02.272Z,24.38
2022-12-29T19:38:29.980Z,32.95
2022-12-29T19:40:57.654Z,37.75
2022-12-29T19:43:35.308Z,29.55
2022-12-29T19:46:08.482Z,29.52
2022-12-29T19:48:36.576Z,27.77
2022-12-29T19:51:08.744Z,28.42
2022-12-29T19:53:37.126Z,36.50
2022-12-29T19:56:06.090Z,31.25
2022-12-29T19:58:36.359Z,24.77
2022-12-29T20:01:07.047Z,29.27
2022-12-29T20:03:41.192Z,33.60
2022-12-29T20:06:09.994Z,33.50
2022-12-29T20:08:38.195Z,30.20
2022-12-29T20:11:09.914Z,27.75
2022-12-29T20:13:37.634Z,21.33
2022-12-29T20:16:07.812Z,22.90
2022-12-29T20:18:36.323Z,23.92
2022-12-29T20:21:05.323Z,26.92
2022-12-29T20:23:37.036Z,26.50
2022-12-29T20:26:04.481Z,28.10
2022-12-29T20:28:32.326Z,22.33
2022-12-29T20:31:08.995Z,26.95
2022-12-29T20:33:36.918Z,26.48
2022-12-29T20:36:17.149Z,32.45
2022-12-29T20:38:46.545Z,23.25
2022-12-29T20:41:15.730Z,26.48
2022-12-29T20:43:43.736Z,26.10
2022-12-29T20:46:12.468Z,28.52
2022-12-29T20:48:40.285Z,24.15
2022-12-29T20:51:08.134Z,28.83
2022-12-29T20:53:38.164Z,25.23
2022-12-29T20:56:08.274Z,24.95
2022-12-29T20:58:59.968Z,30.88
2022-12-29T21:01:28.769Z,23.27
2022-12-29T21:06:27.974Z,27.00
2022-12-29T21:08:55.330Z,20.23
2022-12-29T21:11:24.222Z,20.77
2022-12-29T21:13:51.637Z,23.23
2022-12-29T21:16:22.176Z,22.10
2022-12-29T21:18:50.439Z,18.67
2022-12-29T21:21:23.331Z,22.95
2022-12-29T21:26:21.260Z,21.70
2022-12-29T21:28:48.681Z,23.58
2022-12-29T21:31:54.700Z,27.48
2022-12-29T21:34:27.953Z,19.00
2022-12-29T21:36:55.382Z,19.95
2022-12-29T21:39:23.031Z,19.45
2022-12-29T21:41:52.059Z,22.38
2022-12-29T21:44:37.994Z,20.88
2022-12-29T21:47:05.403Z,19.98
2022-12-29T21:49:33.144Z,20.38
2022-12-29T21:52:00.669Z,22.45
2022-12-29T21:54:48.407Z,21.88
2022-12-29T21:57:37.992Z,18.77
2022-12-29T22:00:27.208Z,20.70
2022-12-29T22:03:22.020Z,27.27
2022-12-29T22:06:09.644Z,25.48
2022-12-29T22:08:55.984Z,25.67
2022-12-29T22:11:42.183Z,20.98
2022-12-29T22:14:09.725Z,22.50
2022-12-29T22:16:37.329Z,25.55
2022-12-29T22:19:05.061Z,25.00
2022-12-29T22:21:32.444Z,25.42
2022-12-29T22:24:00.756Z,28.95
2022-12-29T22:26:28.187Z,26.10
2022-12-29T22:28:55.623Z,24.77
2022-12-29T22:31:29.183Z,24.95
2022-12-29T22:34:03.976Z,23.52
2022-12-29T22:36:32.348Z,20.95
2022-12-29T22:38:59.753Z,17.30
2022-12-29T22:41:28.400Z,24.90
2022-12-29T22:43:56.006Z,26.00
2022-12-29T22:46:23.518Z,19.88
2022-12-29T22:48:51.025Z,26.27
2022-12-29T22:51:18.343Z,22.20
2022-12-29T22:53:48.330Z,18.35
2022-12-29T22:56:15.665Z,23.23
2022-12-29T22:58:44.274Z,24.55
2022-12-29T23:01:13.246Z,21.05
2022-12-29T23:03:41.012Z,18.20
2022-12-29T23:06:11.417Z,15.05
2022-12-29T23:08:39.998Z,23.67
2022-12-29T23:11:09.799Z,16.30
2022-12-29T23:13:37.333Z,21.35
2022-12-29T23:16:05.170Z,20.75
2022-12-29T23:18:32.622Z,27.63
2022-12-29T23:20:59.985Z,26.17
2022-12-29T23:23:49.172Z,20.85
2022-12-29T23:26:19.036Z,16.00
2022-12-29T23:28:46.806Z,15.82
2022-12-29T23:31:14.600Z,28.92
2022-12-29T23:33:42.164Z,23.35
2022-12-29T23:36:09.552Z,20.48
2022-12-29T23:38:36.880Z,16.77
2022-12-29T23:41:04.391Z,16.88
2022-12-29T23:43:31.950Z,17.85
2022-12-29T23:46:00.110Z,19.85
2022-12-29T23:48:27.503Z,19.73
2022-12-29T23:50:56.388Z,14.13
2022-12-29T23:53:23.748Z,21.90
2022-12-29T23:55:54.772Z,23.13
2022-12-29T23:58:22.486Z,18.15
